NEW EXCHEQUER-LK MCCLURE (EXC)

Elevation: 879' · MERCED R basin · Operator: Merced Irrigation District

Provisional data, subject to change.
Query executed Monday at 6:29:45   clock

Select a sensor type for a plot of data.
Note: Reservoir Flows are daily averages.

Earlier

Date RES ELE    STORAGE    RES CHG    TOC STO    ABV TOC    OUTFLOW    INFLOW    PPT INC    TEMP MN    TEMP MX    TEMP AV   
 FEET   AF   AF   AF   AF   CFS   CFS   INCHES   DEG F   DEG F   DEG F  
11/23/2014 599.68 79516 -- 674600 -595084 239 39 0.00 -- -- --
11/24/2014 599.37 79144 -- 674600 -595456 231 44 0.00 -- -- --
11/25/2014 599.09 78808 -- 674600 -595792 238 69 0.00 -- -- --
11/26/2014 598.78 78436 -- 674600 -596164 241 53 0.00 -- -- --
11/27/2014 598.46 78052 -- 674600 -596548 238 44 0.00 -- -- --
11/28/2014 598.15 77680 -- 674600 -596920 241 53 0.00 -- -- --
11/29/2014 597.85 77320 -- 674600 -597280 240 58 0.23 -- -- --
11/30/2014 597.52 76924 -- 674600 -597676 246 46 0.08 -- -- --
12/01/2014 596.68 75916 -- 674600 -598684 490 0 0.04 -- -- --
12/02/2014 596.43 75616 -- 674600 -598984 237 85 0.39 -- -- --
12/03/2014 596.35 75520 -- 674600 -- 235 187 0.32 -- -- --
12/04/2014 596.67 75904 -- 674600 -598696 235 429 0.00 -- -- --
12/05/2014 596.71 75952 -- 674600 -598648 235 259 0.00 -- -- --
12/06/2014 596.63 75856 -- 674600 -598744 235 187 0.00 -- -- --
12/07/2014 596.49 75688 -- 674600 -598912 235 150 0.00 -- -- --
12/08/2014 596.30 75460 -- 674600 -599140 235 120 0.00 -- -- --
12/09/2014 596.11 75232 -- 674600 -599368 235 120 0.00 -- -- --
12/10/2014 595.62 74644 -- 674600 -599956 238 0 0.00 -- -- --
12/11/2014 595.53 74536 -- 674600 -600064 245 190 2.01 -- -- --
12/12/2014 595.61 74632 -- 674600 -- 225 274 0.19 -- -- --
12/13/2014 595.70 74740 -- 674600 -599860 235 289 0.00 -- -- --
12/14/2014 595.65 74680 -- 674600 -599920 235 205 0.00 -- -- --
12/15/2014 595.52 74524 -- 674600 -600076 235 156 0.17 -- -- --
12/16/2014 595.49 74488 -- 674600 -600112 235 217 0.71 -- -- --
12/17/2014 595.51 74512 -- 674600 -600088 235 247 0.00 -- -- --
12/18/2014 595.47 74464 -- 674600 -600136 238 214 0.00 -- -- --
12/19/2014 595.39 74368 -- 674600 -- 249 201 0.08 -- -- --
12/20/2014 595.27 74224 -- 674600 -600376 250 178 0.01 -- -- --
12/21/2014 -- 74110 e -- -- -- -- -- -- -- -- --
12/22/2014 -- -- -- -- -- -- -- -- -- -- --

Later | Latest

Warning! This data is preliminary and subject to revision.

Show EXC Map | Plot EXC Data | 1 Month EXC Data | Real-Time EXC Data | EXC Info